Nearby METAR Reports

 

KSJC - San Jose, California, USA
Distance from station: NE 14km
Updated: 20 October 2018 01:53 PDT
Clear
Clear
 Wind from calm
Wind: Calm
Temperature: 14°C
Dew Point: 8°C
Humidity: 67%
Barometer: 1016.6 hPa
Clouds: Clear
Visibility: 16 km
2018/10/20 08:53 KSJC 200853Z AUTO 00000KT 10SM CLR 14/08 A3002 RMK AO2 SLP166 T01440083 56006
KNUQ - Moffett Nas/Mtn, California, USA
Distance from station: N 14km
Updated: 20 October 2018 01:56 PDT
Clear
Clear
 Wind from calm
Wind: Calm
Temperature: 14°C
Dew Point: 10°C
Humidity: 77%
Barometer: 1016.9 hPa
Clouds: Clear
Visibility: 16 km
2018/10/20 08:56 KNUQ 200856Z 00000KT 10SM CLR 14/10 A3003 RMK AO2 SLP171 T01390100 56006
 
KPAO - Palo Alto, California, USA
Distance from station: NNW 23km
Updated: 19 October 2018 20:47 PDT
NOT Current
Clear
Clear
 Wind from NW
Wind: NW 19 km/h
Temperature: 17°C
Dew Point: 12°C
Humidity: 73%
Barometer: 1017.6 hPa
Clouds: Clear
Visibility: 16 km
2018/10/20 03:47 KPAO 200347Z 31010KT 10SM SKC 17/12 A3005 RMK LAST
KRHV - San Jose/Reid, California, USA
Distance from station: ENE 19km
Updated: 19 October 2018 21:47 PDT
NOT Current
Clear
Clear
 Wind from calm
Wind: Calm
Temperature: 17°C
Dew Point: 12°C
Humidity: 73%
Barometer: 1016.9 hPa
Clouds: Clear
Visibility: 16 km
2018/10/20 04:47 KRHV 200447Z 00000KT 10SM SKC 17/12 A3003 RMK LAST
 
KOAK - Oakland, California, USA
Distance from station: NNW 50km
Updated: 20 October 2018 01:53 PDT
Shallow fog, Few clouds
Shallow fog, Few clouds
 Wind from WNW
Wind: WNW 11 km/h
Temperature: 13°C
Dew Point: 12°C
Humidity: 94%
Barometer: 1017.3 hPa
Summary: Shallow Fog
Clouds: Few Clouds
Visibility: 14 km
Cloud details: Few Clouds 152 m
2018/10/20 08:53 KOAK 200853Z 30006KT 9SM MIFG FEW005 13/12 A3004 RMK AO2 SLP171 T01330122 55002
KSQL - San Carlos Airpo, California, USA
Distance from station: NW 34km
Updated: 20 October 2018 02:40 PDT
Clear
Clear
 Wind from NW
Wind: NW 11 km/h
Temperature: 13°C
Dew Point: 10°C
Humidity: 82%
Barometer: 1016.9 hPa
Clouds: Clear
Visibility: 16 km
2018/10/20 09:40 KSQL 200940Z AUTO 31006KT 10SM CLR 13/10 A3003 RMK AO2
 
KSFO - San Francisco, California, USA
Distance from station: NW 49km
Updated: 20 October 2018 01:56 PDT
Few Clouds
Few Clouds
 Wind from WNW
Wind: WNW 26 km/h
Temperature: 12°C
Dew Point: 11°C
Humidity: 94%
Barometer: 1016.6 hPa
Clouds: Few Clouds
Visibility: 16 km
Cloud details: Few Clouds 61 m
2018/10/20 08:56 KSFO 200856Z 29014KT 10SM FEW002 12/11 A3002 RMK AO2 SLP166 FG IN GAP NW T01170106 56004
KE16 - San Martin, California, USA
Distance from station: ESE 43km
Updated: 20 October 2018 01:15 PDT
NOT Current
Clear
Clear
 Wind from calm
Wind: Calm
Temperature: 12°C
Dew Point: 5°C
Humidity: 63%
Barometer: 1017.6 hPa
Clouds: Clear
Visibility: 16 km
2018/10/20 08:15 KE16 200815Z AUTO 00000KT 10SM CLR 12/05 A3005 RMK AO2
 
KWVI - Watsonville, California, USA
Distance from station: SSE 44km
Updated: 20 October 2018 01:53 PDT
Clear
Clear
 Wind from calm
Wind: Calm
Temperature: 10°C
Dew Point: 8°C
Humidity: 88%
Barometer: 1016.9 hPa
Clouds: Clear
Visibility: 16 km
2018/10/20 08:53 KWVI 200853Z AUTO 00000KT 10SM CLR 10/08 A3003 RMK AO2 SLP169 T01000083 55003
KHAF - Half Moon Bay, California, USA
Distance from station: WNW 50km
Updated: 03 October 2018 13:40 PDT
NOT Current
Haze, Mostly cloudy
Haze, Mostly cloudy
 Wind from S
Wind: S 7 km/h
Temperature: 18°C
Dew Point: 15°C
Humidity: 83%
Barometer: 1013.2 hPa
Summary: Haze
Clouds: Mostly cloudy
Visibility: 6 km
Cloud details: Few Clouds 640 m
Mostly cloudy 914 m
2018/10/03 20:40 KHAF 032040Z AUTO 19004KT 4SM HZ FEW021 BKN030 18/15 A2992 RMK AO2
 
KHWD - Hayward, California, USA
Distance from station: N 44km
Updated: 20 October 2018 01:54 PDT
Clear
Clear
 Wind from N
Wind: N 7 km/h
Temperature: 14°C
Dew Point: 10°C
Humidity: 77%
Barometer: 1016.9 hPa
Clouds: Clear
Visibility: 16 km
2018/10/20 08:54 KHWD 200854Z AUTO 35004KT 10SM CLR 14/10 A3003 RMK AO2 SLP177 T01390100 55003
KLVK - Livermore, California, USA
Distance from station: NNE 51km
Updated: 20 October 2018 01:53 PDT
Clear
Clear
 Wind from calm
Wind: Calm
Temperature: 12°C
Dew Point: 4°C
Humidity: 58%
Barometer: 1016.6 hPa
Clouds: Clear
Visibility: 16 km
2018/10/20 08:53 KLVK 200853Z AUTO 00000KT 10SM CLR 12/04 A3002 RMK AO2 SLP164 T01220044 55002